KTEW

Mason Jewett Field Airport

Mason, Michigan, USA
METAR KTEW 191055Z AUTO 01004KT 3SM BR OVC002 19/18 A3005 RMK AO2 T01900175
Observed Flight Rules
Sep-19 @ 10:55 UTC (9 minutes ago) Instrument Flight Rules
Wind Visibility Clouds Conditions
10° at 4 knots 3 miles
  • Overcast at 200' AGL
  • Mist
Temperatures Readings
Current 19°C / 66°F
Dewpoint 18°C / 64°F
Humidity 94%
Altimeter 30.05" Hg
Pressure 1018 hPa
Elevation 280
METAR KTEW 191055Z AUTO 01004KT 3SM BR OVC002 19/18 A3005 RMK AO2 T01900175
Observed Flight Rules
Sep-19 @ 10:55 UTC
(9 minutes ago)
LIFR
Wind Visibility
10° at 4 knots 3 miles
Clouds
  • Overcast at 200' AGL
Conditions
  • Mist
Temperature Dewpoint
19°C / 66°F 18°C / 64°F
Humidity Altimeter Pressure
94% 30.05" Hg 1018 hPa